sensor_id;sensor_type;location;lat;lon;timestamp;temperature;humidity
66522;SHT31;53349;53.538;8.584;2023-08-06T00:01:35;15.40;78.40
66522;SHT31;53349;53.538;8.584;2023-08-06T00:04:00;15.35;78.60
66522;SHT31;53349;53.538;8.584;2023-08-06T00:06:26;15.35;78.71
66522;SHT31;53349;53.538;8.584;2023-08-06T00:08:51;15.36;78.65
66522;SHT31;53349;53.538;8.584;2023-08-06T00:11:18;15.36;78.67
66522;SHT31;53349;53.538;8.584;2023-08-06T00:13:43;15.33;78.60
66522;SHT31;53349;53.538;8.584;2023-08-06T00:16:15;15.36;78.67
66522;SHT31;53349;53.538;8.584;2023-08-06T00:18:43;15.40;78.54
66522;SHT31;53349;53.538;8.584;2023-08-06T00:21:09;15.39;78.43
66522;SHT31;53349;53.538;8.584;2023-08-06T00:23:35;15.35;78.47
66522;SHT31;53349;53.538;8.584;2023-08-06T00:26:02;15.40;78.42
66522;SHT31;53349;53.538;8.584;2023-08-06T00:28:28;15.35;78.51
66522;SHT31;53349;53.538;8.584;2023-08-06T00:30:55;15.32;78.67
66522;SHT31;53349;53.538;8.584;2023-08-06T00:33:23;15.36;78.57
66522;SHT31;53349;53.538;8.584;2023-08-06T00:35:51;15.37;78.40
66522;SHT31;53349;53.538;8.584;2023-08-06T00:38:17;15.33;78.43
66522;SHT31;53349;53.538;8.584;2023-08-06T00:40:43;15.35;78.37
66522;SHT31;53349;53.538;8.584;2023-08-06T00:43:10;15.33;78.50
66522;SHT31;53349;53.538;8.584;2023-08-06T00:45:36;15.30;78.41
66522;SHT31;53349;53.538;8.584;2023-08-06T00:48:04;15.23;78.53
66522;SHT31;53349;53.538;8.584;2023-08-06T00:50:30;15.20;78.74
66522;SHT31;53349;53.538;8.584;2023-08-06T00:52:55;15.16;78.81
66522;SHT31;53349;53.538;8.584;2023-08-06T00:55:23;15.16;78.94
66522;SHT31;53349;53.538;8.584;2023-08-06T00:57:50;15.16;78.68
66522;SHT31;53349;53.538;8.584;2023-08-06T01:00:16;15.22;78.64
66522;SHT31;53349;53.538;8.584;2023-08-06T01:02:43;15.25;78.61
66522;SHT31;53349;53.538;8.584;2023-08-06T01:05:08;15.26;78.53
66522;SHT31;53349;53.538;8.584;2023-08-06T01:15:47;15.19;78.46
66522;SHT31;53349;53.538;8.584;2023-08-06T01:18:14;15.23;78.38
66522;SHT31;53349;53.538;8.584;2023-08-06T01:20:39;15.22;78.32
66522;SHT31;53349;53.538;8.584;2023-08-06T01:23:05;15.20;78.26
66522;SHT31;53349;53.538;8.584;2023-08-06T01:25:35;15.13;78.46
66522;SHT31;53349;53.538;8.584;2023-08-06T01:28:16;15.12;78.66
66522;SHT31;53349;53.538;8.584;2023-08-06T01:30:44;15.10;78.73
66522;SHT31;53349;53.538;8.584;2023-08-06T01:33:16;15.12;78.73
66522;SHT31;53349;53.538;8.584;2023-08-06T01:35:44;15.12;78.73
66522;SHT31;53349;53.538;8.584;2023-08-06T01:38:10;15.10;78.79
66522;SHT31;53349;53.538;8.584;2023-08-06T01:40:37;15.12;78.76
66522;SHT31;53349;53.538;8.584;2023-08-06T01:43:04;15.08;78.91
66522;SHT31;53349;53.538;8.584;2023-08-06T01:45:30;15.03;79.01
66522;SHT31;53349;53.538;8.584;2023-08-06T01:47:55;14.99;79.13
66522;SHT31;53349;53.538;8.584;2023-08-06T01:50:20;15.03;79.17
66522;SHT31;53349;53.538;8.584;2023-08-06T01:52:46;15.00;79.33
66522;SHT31;53349;53.538;8.584;2023-08-06T01:55:11;14.99;79.41
66522;SHT31;53349;53.538;8.584;2023-08-06T01:57:36;15.03;79.30
66522;SHT31;53349;53.538;8.584;2023-08-06T02:00:02;14.98;79.41
66522;SHT31;53349;53.538;8.584;2023-08-06T02:02:27;14.99;79.35
66522;SHT31;53349;53.538;8.584;2023-08-06T02:04:53;14.98;79.43
66522;SHT31;53349;53.538;8.584;2023-08-06T02:07:18;15.00;79.37
66522;SHT31;53349;53.538;8.584;2023-08-06T02:09:43;14.99;79.43
66522;SHT31;53349;53.538;8.584;2023-08-06T02:12:09;14.98;79.43
66522;SHT31;53349;53.538;8.584;2023-08-06T02:14:34;14.95;79.43
66522;SHT31;53349;53.538;8.584;2023-08-06T02:17:01;14.96;79.43
66522;SHT31;53349;53.538;8.584;2023-08-06T02:19:26;14.98;79.50
66522;SHT31;53349;53.538;8.584;2023-08-06T02:21:51;14.98;79.46
66522;SHT31;53349;53.538;8.584;2023-08-06T02:24:17;14.98;79.33
66522;SHT31;53349;53.538;8.584;2023-08-06T02:26:42;14.98;79.30
66522;SHT31;53349;53.538;8.584;2023-08-06T02:29:08;14.99;79.36
66522;SHT31;53349;53.538;8.584;2023-08-06T02:31:33;14.92;79.42
66522;SHT31;53349;53.538;8.584;2023-08-06T02:34:00;14.98;79.41
66522;SHT31;53349;53.538;8.584;2023-08-06T02:36:25;14.98;79.45
66522;SHT31;53349;53.538;8.584;2023-08-06T02:38:51;14.99;79.35
66522;SHT31;53349;53.538;8.584;2023-08-06T02:41:16;14.95;79.49
66522;SHT31;53349;53.538;8.584;2023-08-06T02:43:41;14.93;79.68
66522;SHT31;53349;53.538;8.584;2023-08-06T02:46:07;14.98;79.54
66522;SHT31;53349;53.538;8.584;2023-08-06T02:48:32;14.99;79.55
66522;SHT31;53349;53.538;8.584;2023-08-06T02:50:58;15.00;79.48
66522;SHT31;53349;53.538;8.584;2023-08-06T02:53:26;14.99;79.50
66522;SHT31;53349;53.538;8.584;2023-08-06T02:55:52;14.98;79.62
66522;SHT31;53349;53.538;8.584;2023-08-06T02:58:19;14.96;79.69
66522;SHT31;53349;53.538;8.584;2023-08-06T03:00:45;14.93;79.76
66522;SHT31;53349;53.538;8.584;2023-08-06T03:03:10;14.88;79.87
66522;SHT31;53349;53.538;8.584;2023-08-06T03:05:36;14.91;79.79
66522;SHT31;53349;53.538;8.584;2023-08-06T03:08:02;14.93;79.76
66522;SHT31;53349;53.538;8.584;2023-08-06T03:10:28;14.89;79.91
66522;SHT31;53349;53.538;8.584;2023-08-06T03:12:54;14.91;79.86
66522;SHT31;53349;53.538;8.584;2023-08-06T03:15:19;14.93;79.86
66522;SHT31;53349;53.538;8.584;2023-08-06T03:17:45;14.91;79.91
66522;SHT31;53349;53.538;8.584;2023-08-06T03:20:14;14.92;79.92
66522;SHT31;53349;53.538;8.584;2023-08-06T03:22:39;14.93;79.90
66522;SHT31;53349;53.538;8.584;2023-08-06T03:25:05;14.92;79.93
66522;SHT31;53349;53.538;8.584;2023-08-06T03:27:30;14.93;79.93
66522;SHT31;53349;53.538;8.584;2023-08-06T03:29:55;14.91;80.07
66522;SHT31;53349;53.538;8.584;2023-08-06T03:32:21;14.88;80.12
66522;SHT31;53349;53.538;8.584;2023-08-06T03:34:46;14.89;80.09
66522;SHT31;53349;53.538;8.584;2023-08-06T03:37:12;14.92;79.97
66522;SHT31;53349;53.538;8.584;2023-08-06T03:39:37;14.92;79.98
66522;SHT31;53349;53.538;8.584;2023-08-06T03:42:04;14.89;80.14
66522;SHT31;53349;53.538;8.584;2023-08-06T03:44:30;14.95;80.12
66522;SHT31;53349;53.538;8.584;2023-08-06T03:46:55;14.95;80.02
66522;SHT31;53349;53.538;8.584;2023-08-06T03:49:22;14.96;79.90
66522;SHT31;53349;53.538;8.584;2023-08-06T03:51:48;14.95;79.95
66522;SHT31;53349;53.538;8.584;2023-08-06T03:54:15;14.98;79.98
66522;SHT31;53349;53.538;8.584;2023-08-06T03:56:41;14.99;79.96
66522;SHT31;53349;53.538;8.584;2023-08-06T03:59:06;15.00;80.04
66522;SHT31;53349;53.538;8.584;2023-08-06T04:01:32;14.96;80.14
66522;SHT31;53349;53.538;8.584;2023-08-06T04:03:57;14.96;80.16
66522;SHT31;53349;53.538;8.584;2023-08-06T04:06:22;14.96;80.13
66522;SHT31;53349;53.538;8.584;2023-08-06T04:08:48;14.99;80.08
66522;SHT31;53349;53.538;8.584;2023-08-06T04:11:13;14.96;80.16
66522;SHT31;53349;53.538;8.584;2023-08-06T04:13:45;15.00;80.20
66522;SHT31;53349;53.538;8.584;2023-08-06T04:16:14;14.98;80.26
66522;SHT31;53349;53.538;8.584;2023-08-06T04:18:41;14.98;80.27
66522;SHT31;53349;53.538;8.584;2023-08-06T04:21:07;14.93;80.44
66522;SHT31;53349;53.538;8.584;2023-08-06T04:23:33;14.98;80.44
66522;SHT31;53349;53.538;8.584;2023-08-06T04:25:58;14.95;80.51
66522;SHT31;53349;53.538;8.584;2023-08-06T04:28:24;14.99;80.51
66522;SHT31;53349;53.538;8.584;2023-08-06T04:30:49;15.00;80.42
66522;SHT31;53349;53.538;8.584;2023-08-06T04:33:14;15.05;80.34
66522;SHT31;53349;53.538;8.584;2023-08-06T04:35:40;15.06;80.27
66522;SHT31;53349;53.538;8.584;2023-08-06T04:38:05;15.02;80.39
66522;SHT31;53349;53.538;8.584;2023-08-06T04:40:35;15.00;80.44
66522;SHT31;53349;53.538;8.584;2023-08-06T04:43:02;14.93;80.68
66522;SHT31;53349;53.538;8.584;2023-08-06T04:45:28;14.93;80.79
66522;SHT31;53349;53.538;8.584;2023-08-06T04:47:53;14.98;80.73
66522;SHT31;53349;53.538;8.584;2023-08-06T04:50:22;15.03;80.69
66522;SHT31;53349;53.538;8.584;2023-08-06T04:52:47;14.96;80.93
66522;SHT31;53349;53.538;8.584;2023-08-06T04:55:12;14.96;81.00
66522;SHT31;53349;53.538;8.584;2023-08-06T04:57:38;14.98;81.00
66522;SHT31;53349;53.538;8.584;2023-08-06T05:00:04;14.98;81.06
66522;SHT31;53349;53.538;8.584;2023-08-06T05:02:30;15.00;81.06
66522;SHT31;53349;53.538;8.584;2023-08-06T05:04:55;14.98;81.21
66522;SHT31;53349;53.538;8.584;2023-08-06T05:07:21;14.99;81.26
66522;SHT31;53349;53.538;8.584;2023-08-06T05:09:46;15.03;81.24
66522;SHT31;53349;53.538;8.584;2023-08-06T05:12:18;15.06;81.28
66522;SHT31;53349;53.538;8.584;2023-08-06T05:14:43;15.12;81.21
66522;SHT31;53349;53.538;8.584;2023-08-06T05:17:09;15.12;81.18
66522;SHT31;53349;53.538;8.584;2023-08-06T05:19:34;15.10;81.30
66522;SHT31;53349;53.538;8.584;2023-08-06T05:22:01;15.15;81.24
66522;SHT31;53349;53.538;8.584;2023-08-06T05:24:29;15.10;81.34
66522;SHT31;53349;53.538;8.584;2023-08-06T05:27:00;15.10;81.40
66522;SHT31;53349;53.538;8.584;2023-08-06T05:29:25;15.12;81.40
66522;SHT31;53349;53.538;8.584;2023-08-06T05:31:51;15.12;81.43
66522;SHT31;53349;53.538;8.584;2023-08-06T05:34:16;15.16;81.29
66522;SHT31;53349;53.538;8.584;2023-08-06T05:36:41;15.15;81.33
66522;SHT31;53349;53.538;8.584;2023-08-06T05:39:07;15.15;81.40
66522;SHT31;53349;53.538;8.584;2023-08-06T05:41:32;15.16;81.39
66522;SHT31;53349;53.538;8.584;2023-08-06T05:43:57;15.16;81.54
66522;SHT31;53349;53.538;8.584;2023-08-06T05:46:23;15.15;81.57
66522;SHT31;53349;53.538;8.584;2023-08-06T05:48:48;15.10;81.75
66522;SHT31;53349;53.538;8.584;2023-08-06T05:51:13;15.13;81.76
66522;SHT31;53349;53.538;8.584;2023-08-06T05:53:40;15.18;81.69
66522;SHT31;53349;53.538;8.584;2023-08-06T05:56:05;15.19;81.83
66522;SHT31;53349;53.538;8.584;2023-08-06T05:58:31;15.23;81.83
66522;SHT31;53349;53.538;8.584;2023-08-06T06:00:56;15.27;81.72
66522;SHT31;53349;53.538;8.584;2023-08-06T06:03:22;15.26;81.73
66522;SHT31;53349;53.538;8.584;2023-08-06T06:05:51;15.30;81.73
66522;SHT31;53349;53.538;8.584;2023-08-06T06:08:16;15.30;81.64
66522;SHT31;53349;53.538;8.584;2023-08-06T06:10:43;15.32;81.65
66522;SHT31;53349;53.538;8.584;2023-08-06T06:13:10;15.33;81.71
66522;SHT31;53349;53.538;8.584;2023-08-06T06:15:36;15.40;81.62
66522;SHT31;53349;53.538;8.584;2023-08-06T06:18:02;15.42;81.68
66522;SHT31;53349;53.538;8.584;2023-08-06T06:20:27;15.50;81.60
66522;SHT31;53349;53.538;8.584;2023-08-06T06:22:52;15.51;81.54
66522;SHT31;53349;53.538;8.584;2023-08-06T06:25:19;15.53;81.54
66522;SHT31;53349;53.538;8.584;2023-08-06T06:27:45;15.58;81.55
66522;SHT31;53349;53.538;8.584;2023-08-06T06:30:11;15.63;81.58
66522;SHT31;53349;53.538;8.584;2023-08-06T06:32:37;15.67;81.51
66522;SHT31;53349;53.538;8.584;2023-08-06T06:35:02;15.70;81.47
66522;SHT31;53349;53.538;8.584;2023-08-06T06:37:28;15.70;81.50
66522;SHT31;53349;53.538;8.584;2023-08-06T06:39:55;15.73;81.48
66522;SHT31;53349;53.538;8.584;2023-08-06T06:42:22;15.77;81.48
66522;SHT31;53349;53.538;8.584;2023-08-06T06:44:48;15.74;81.53
66522;SHT31;53349;53.538;8.584;2023-08-06T06:47:14;15.77;81.60
66522;SHT31;53349;53.538;8.584;2023-08-06T06:49:39;15.83;81.57
66522;SHT31;53349;53.538;8.584;2023-08-06T06:52:06;15.88;81.50
66522;SHT31;53349;53.538;8.584;2023-08-06T06:54:31;15.93;81.43
66522;SHT31;53349;53.538;8.584;2023-08-06T06:56:57;15.95;81.40
66522;SHT31;53349;53.538;8.584;2023-08-06T06:59:24;15.95;81.37
66522;SHT31;53349;53.538;8.584;2023-08-06T07:01:49;15.95;81.17
66522;SHT31;53349;53.538;8.584;2023-08-06T07:04:18;16.00;81.12
66522;SHT31;53349;53.538;8.584;2023-08-06T07:06:43;16.02;80.96
66522;SHT31;53349;53.538;8.584;2023-08-06T07:09:09;16.08;80.86
66522;SHT31;53349;53.538;8.584;2023-08-06T07:11:34;16.08;80.74
66522;SHT31;53349;53.538;8.584;2023-08-06T07:13:59;16.09;80.73
66522;SHT31;53349;53.538;8.584;2023-08-06T07:16:25;16.05;80.52
66522;SHT31;53349;53.538;8.584;2023-08-06T07:18:53;16.00;80.57
66522;SHT31;53349;53.538;8.584;2023-08-06T07:21:20;16.02;80.66
66522;SHT31;53349;53.538;8.584;2023-08-06T07:23:46;15.98;80.74
66522;SHT31;53349;53.538;8.584;2023-08-06T07:26:11;16.02;80.79
66522;SHT31;53349;53.538;8.584;2023-08-06T07:28:37;16.04;80.70
66522;SHT31;53349;53.538;8.584;2023-08-06T07:31:03;16.07;80.65
66522;SHT31;53349;53.538;8.584;2023-08-06T07:33:29;16.11;80.56
66522;SHT31;53349;53.538;8.584;2023-08-06T07:35:54;16.11;80.56
66522;SHT31;53349;53.538;8.584;2023-08-06T07:38:20;16.12;80.49
66522;SHT31;53349;53.538;8.584;2023-08-06T07:40:46;16.17;80.51
66522;SHT31;53349;53.538;8.584;2023-08-06T07:43:12;16.22;80.47
66522;SHT31;53349;53.538;8.584;2023-08-06T07:45:37;16.24;80.46
66522;SHT31;53349;53.538;8.584;2023-08-06T07:48:06;16.22;80.54
66522;SHT31;53349;53.538;8.584;2023-08-06T07:50:33;16.19;80.41
66522;SHT31;53349;53.538;8.584;2023-08-06T07:52:59;16.24;80.34
66522;SHT31;53349;53.538;8.584;2023-08-06T07:55:25;16.29;80.22
66522;SHT31;53349;53.538;8.584;2023-08-06T07:57:53;16.36;80.14
66522;SHT31;53349;53.538;8.584;2023-08-06T08:00:19;16.42;80.00
66522;SHT31;53349;53.538;8.584;2023-08-06T08:02:44;16.51;79.73
66522;SHT31;53349;53.538;8.584;2023-08-06T08:05:10;16.57;79.47
66522;SHT31;53349;53.538;8.584;2023-08-06T08:07:36;16.63;79.51
66522;SHT31;53349;53.538;8.584;2023-08-06T08:10:01;16.73;79.42
66522;SHT31;53349;53.538;8.584;2023-08-06T08:12:26;16.79;79.09
66522;SHT31;53349;53.538;8.584;2023-08-06T08:14:52;16.88;78.88
66522;SHT31;53349;53.538;8.584;2023-08-06T08:17:17;16.93;78.76
66522;SHT31;53349;53.538;8.584;2023-08-06T08:19:43;16.99;78.54
66522;SHT31;53349;53.538;8.584;2023-08-06T08:22:08;17.04;78.28
66522;SHT31;53349;53.538;8.584;2023-08-06T08:24:35;17.04;78.06
66522;SHT31;53349;53.538;8.584;2023-08-06T08:27:00;17.18;78.07
66522;SHT31;53349;53.538;8.584;2023-08-06T08:29:26;17.32;77.60
66522;SHT31;53349;53.538;8.584;2023-08-06T08:31:51;17.45;77.30
66522;SHT31;53349;53.538;8.584;2023-08-06T08:34:17;17.57;77.16
66522;SHT31;53349;53.538;8.584;2023-08-06T08:36:43;17.78;76.72
66522;SHT31;53349;53.538;8.584;2023-08-06T08:39:08;17.90;76.38
66522;SHT31;53349;53.538;8.584;2023-08-06T08:41:37;18.03;76.16
66522;SHT31;53349;53.538;8.584;2023-08-06T08:44:05;18.12;75.59
66522;SHT31;53349;53.538;8.584;2023-08-06T08:46:32;18.16;75.25
66522;SHT31;53349;53.538;8.584;2023-08-06T08:48:59;18.37;75.40
66522;SHT31;53349;53.538;8.584;2023-08-06T08:51:26;18.57;75.09
66522;SHT31;53349;53.538;8.584;2023-08-06T08:53:53;18.72;74.93
66522;SHT31;53349;53.538;8.584;2023-08-06T08:56:20;18.89;74.36
66522;SHT31;53349;53.538;8.584;2023-08-06T08:58:45;19.02;74.08
66522;SHT31;53349;53.538;8.584;2023-08-06T09:01:12;19.26;73.89
66522;SHT31;53349;53.538;8.584;2023-08-06T09:03:38;19.36;73.04
66522;SHT31;53349;53.538;8.584;2023-08-06T09:06:04;19.47;73.04
66522;SHT31;53349;53.538;8.584;2023-08-06T09:08:34;19.59;73.15
66522;SHT31;53349;53.538;8.584;2023-08-06T09:11:02;19.77;72.46
66522;SHT31;53349;53.538;8.584;2023-08-06T09:13:28;20.00;71.78
66522;SHT31;53349;53.538;8.584;2023-08-06T09:15:54;20.04;71.33
66522;SHT31;53349;53.538;8.584;2023-08-06T09:18:29;19.98;70.80
66522;SHT31;53349;53.538;8.584;2023-08-06T09:20:58;20.10;70.84
66522;SHT31;53349;53.538;8.584;2023-08-06T09:23:31;20.21;70.69
66522;SHT31;53349;53.538;8.584;2023-08-06T09:25:57;20.29;69.89
66522;SHT31;53349;53.538;8.584;2023-08-06T09:28:23;20.35;69.92
66522;SHT31;53349;53.538;8.584;2023-08-06T09:30:50;20.27;69.18
66522;SHT31;53349;53.538;8.584;2023-08-06T09:33:19;20.41;69.39
66522;SHT31;53349;53.538;8.584;2023-08-06T09:35:47;20.47;69.27
66522;SHT31;53349;53.538;8.584;2023-08-06T09:38:12;20.49;69.21
66522;SHT31;53349;53.538;8.584;2023-08-06T09:40:44;20.38;69.51
66522;SHT31;53349;53.538;8.584;2023-08-06T09:43:11;20.27;69.15
66522;SHT31;53349;53.538;8.584;2023-08-06T09:45:37;20.27;69.09
66522;SHT31;53349;53.538;8.584;2023-08-06T09:48:05;20.32;69.08
66522;SHT31;53349;53.538;8.584;2023-08-06T09:50:33;20.38;69.12
66522;SHT31;53349;53.538;8.584;2023-08-06T09:53:00;20.44;68.71
66522;SHT31;53349;53.538;8.584;2023-08-06T09:55:26;20.49;69.02
66522;SHT31;53349;53.538;8.584;2023-08-06T09:57:52;20.44;69.37
66522;SHT31;53349;53.538;8.584;2023-08-06T10:00:17;20.53;69.49
66522;SHT31;53349;53.538;8.584;2023-08-06T10:02:43;20.55;68.96
66522;SHT31;53349;53.538;8.584;2023-08-06T10:05:10;20.71;68.62
66522;SHT31;53349;53.538;8.584;2023-08-06T10:07:36;20.86;68.52
66522;SHT31;53349;53.538;8.584;2023-08-06T10:10:02;20.99;68.52
66522;SHT31;53349;53.538;8.584;2023-08-06T10:12:31;21.24;68.08
66522;SHT31;53349;53.538;8.584;2023-08-06T10:14:59;21.40;67.81
66522;SHT31;53349;53.538;8.584;2023-08-06T10:17:26;21.53;67.82
66522;SHT31;53349;53.538;8.584;2023-08-06T10:19:52;21.53;67.72
66522;SHT31;53349;53.538;8.584;2023-08-06T10:22:19;21.57;67.75
66522;SHT31;53349;53.538;8.584;2023-08-06T10:24:55;21.58;67.16
66522;SHT31;53349;53.538;8.584;2023-08-06T10:27:36;21.62;66.65
66522;SHT31;53349;53.538;8.584;2023-08-06T10:30:29;21.67;66.74
66522;SHT31;53349;53.538;8.584;2023-08-06T10:32:56;21.64;66.71
66522;SHT31;53349;53.538;8.584;2023-08-06T10:37:58;21.59;66.59
66522;SHT31;53349;53.538;8.584;2023-08-06T10:40:24;21.57;66.50
66522;SHT31;53349;53.538;8.584;2023-08-06T10:42:50;21.61;66.52
66522;SHT31;53349;53.538;8.584;2023-08-06T10:45:19;21.59;66.97
66522;SHT31;53349;53.538;8.584;2023-08-06T10:47:45;21.71;66.52
66522;SHT31;53349;53.538;8.584;2023-08-06T10:50:16;21.67;66.47
66522;SHT31;53349;53.538;8.584;2023-08-06T10:52:46;21.68;66.32
66522;SHT31;53349;53.538;8.584;2023-08-06T10:55:12;21.67;65.82
66522;SHT31;53349;53.538;8.584;2023-08-06T10:57:40;21.65;65.94
66522;SHT31;53349;53.538;8.584;2023-08-06T11:00:07;21.68;65.70
66522;SHT31;53349;53.538;8.584;2023-08-06T11:02:34;21.68;65.55
66522;SHT31;53349;53.538;8.584;2023-08-06T11:05:07;21.69;65.42
66522;SHT31;53349;53.538;8.584;2023-08-06T11:07:33;21.67;65.66
66522;SHT31;53349;53.538;8.584;2023-08-06T11:10:07;21.77;66.00
66522;SHT31;53349;53.538;8.584;2023-08-06T11:12:36;21.82;65.84
66522;SHT31;53349;53.538;8.584;2023-08-06T11:15:03;21.84;66.08
66522;SHT31;53349;53.538;8.584;2023-08-06T11:17:31;21.85;66.13
66522;SHT31;53349;53.538;8.584;2023-08-06T11:19:59;21.85;65.93
66522;SHT31;53349;53.538;8.584;2023-08-06T11:22:25;21.97;65.02
66522;SHT31;53349;53.538;8.584;2023-08-06T11:24:50;22.13;64.84
66522;SHT31;53349;53.538;8.584;2023-08-06T11:27:16;22.25;64.58
66522;SHT31;53349;53.538;8.584;2023-08-06T11:29:43;22.33;64.21
66522;SHT31;53349;53.538;8.584;2023-08-06T11:32:10;22.36;64.12
66522;SHT31;53349;53.538;8.584;2023-08-06T11:34:36;22.22;64.76
66522;SHT31;53349;53.538;8.584;2023-08-06T11:37:06;22.09;64.08
66522;SHT31;53349;53.538;8.584;2023-08-06T11:39:35;22.05;64.27
66522;SHT31;53349;53.538;8.584;2023-08-06T11:42:03;22.19;64.20
66522;SHT31;53349;53.538;8.584;2023-08-06T11:44:33;22.22;64.02
66522;SHT31;53349;53.538;8.584;2023-08-06T11:47:02;22.20;64.23
66522;SHT31;53349;53.538;8.584;2023-08-06T11:49:54;21.97;64.36
66522;SHT31;53349;53.538;8.584;2023-08-06T11:52:25;21.79;64.88
66522;SHT31;53349;53.538;8.584;2023-08-06T11:55:03;21.77;64.71
66522;SHT31;53349;53.538;8.584;2023-08-06T11:57:30;21.68;64.41
66522;SHT31;53349;53.538;8.584;2023-08-06T11:59:56;21.82;63.42
66522;SHT31;53349;53.538;8.584;2023-08-06T12:02:24;21.89;63.36
66522;SHT31;53349;53.538;8.584;2023-08-06T12:04:59;21.95;63.12
66522;SHT31;53349;53.538;8.584;2023-08-06T12:07:32;21.79;62.89
66522;SHT31;53349;53.538;8.584;2023-08-06T12:09:58;21.73;63.30
66522;SHT31;53349;53.538;8.584;2023-08-06T12:12:24;21.81;63.20
66522;SHT31;53349;53.538;8.584;2023-08-06T12:14:49;21.85;62.94
66522;SHT31;53349;53.538;8.584;2023-08-06T12:17:15;21.87;63.20
66522;SHT31;53349;53.538;8.584;2023-08-06T12:19:40;21.79;62.19
66522;SHT31;53349;53.538;8.584;2023-08-06T12:22:06;21.69;62.70
66522;SHT31;53349;53.538;8.584;2023-08-06T12:24:31;21.73;63.38
66522;SHT31;53349;53.538;8.584;2023-08-06T12:26:58;21.73;63.39
66522;SHT31;53349;53.538;8.584;2023-08-06T12:29:24;21.79;63.31
66522;SHT31;53349;53.538;8.584;2023-08-06T12:31:50;21.91;62.88
66522;SHT31;53349;53.538;8.584;2023-08-06T12:34:15;21.95;62.66
66522;SHT31;53349;53.538;8.584;2023-08-06T12:36:40;21.98;62.10
66522;SHT31;53349;53.538;8.584;2023-08-06T12:39:06;21.97;62.58
66522;SHT31;53349;53.538;8.584;2023-08-06T12:41:31;21.97;62.57
66522;SHT31;53349;53.538;8.584;2023-08-06T12:43:57;21.97;62.95
66522;SHT31;53349;53.538;8.584;2023-08-06T12:46:25;22.02;63.19
66522;SHT31;53349;53.538;8.584;2023-08-06T12:48:52;22.10;63.23
66522;SHT31;53349;53.538;8.584;2023-08-06T12:51:17;22.19;62.92
66522;SHT31;53349;53.538;8.584;2023-08-06T12:53:42;22.13;63.28
66522;SHT31;53349;53.538;8.584;2023-08-06T12:56:08;22.13;63.08
66522;SHT31;53349;53.538;8.584;2023-08-06T12:58:33;22.18;63.18
66522;SHT31;53349;53.538;8.584;2023-08-06T13:00:58;22.23;63.71
66522;SHT31;53349;53.538;8.584;2023-08-06T13:03:25;22.28;63.70
66522;SHT31;53349;53.538;8.584;2023-08-06T13:05:50;22.33;62.40
66522;SHT31;53349;53.538;8.584;2023-08-06T13:08:17;22.40;62.24
66522;SHT31;53349;53.538;8.584;2023-08-06T13:10:43;22.49;62.78
66522;SHT31;53349;53.538;8.584;2023-08-06T13:13:12;22.57;64.18
66522;SHT31;53349;53.538;8.584;2023-08-06T13:15:38;22.60;64.69
66522;SHT31;53349;53.538;8.584;2023-08-06T13:18:03;22.63;64.61
66522;SHT31;53349;53.538;8.584;2023-08-06T13:20:30;22.53;65.16
66522;SHT31;53349;53.538;8.584;2023-08-06T13:22:58;22.49;65.30
66522;SHT31;53349;53.538;8.584;2023-08-06T13:25:24;22.59;64.91
66522;SHT31;53349;53.538;8.584;2023-08-06T13:27:50;22.61;64.57
66522;SHT31;53349;53.538;8.584;2023-08-06T13:30:16;22.67;64.76
66522;SHT31;53349;53.538;8.584;2023-08-06T13:32:42;22.64;64.91
66522;SHT31;53349;53.538;8.584;2023-08-06T13:35:11;22.60;64.57
66522;SHT31;53349;53.538;8.584;2023-08-06T13:37:36;22.60;64.79
66522;SHT31;53349;53.538;8.584;2023-08-06T13:40:02;22.63;64.77
66522;SHT31;53349;53.538;8.584;2023-08-06T13:42:29;22.66;64.78
66522;SHT31;53349;53.538;8.584;2023-08-06T13:44:55;22.67;64.70
66522;SHT31;53349;53.538;8.584;2023-08-06T13:47:21;22.64;64.50
66522;SHT31;53349;53.538;8.584;2023-08-06T13:49:46;22.66;64.12
66522;SHT31;53349;53.538;8.584;2023-08-06T13:52:11;22.67;63.70
66522;SHT31;53349;53.538;8.584;2023-08-06T13:54:39;22.60;63.98
66522;SHT31;53349;53.538;8.584;2023-08-06T13:57:04;22.57;64.38
66522;SHT31;53349;53.538;8.584;2023-08-06T13:59:32;22.63;64.39
66522;SHT31;53349;53.538;8.584;2023-08-06T14:01:57;22.70;64.47
66522;SHT31;53349;53.538;8.584;2023-08-06T14:04:27;22.73;64.45
66522;SHT31;53349;53.538;8.584;2023-08-06T14:06:53;22.76;64.28
66522;SHT31;53349;53.538;8.584;2023-08-06T14:09:19;22.80;63.99
66522;SHT31;53349;53.538;8.584;2023-08-06T14:11:44;22.80;64.32
66522;SHT31;53349;53.538;8.584;2023-08-06T14:14:11;22.77;64.64
66522;SHT31;53349;53.538;8.584;2023-08-06T14:16:37;22.84;64.46
66522;SHT31;53349;53.538;8.584;2023-08-06T14:19:03;22.90;64.46
66522;SHT31;53349;53.538;8.584;2023-08-06T14:21:28;22.91;64.42
66522;SHT31;53349;53.538;8.584;2023-08-06T14:23:54;22.90;64.11
66522;SHT31;53349;53.538;8.584;2023-08-06T14:26:20;22.86;64.28
66522;SHT31;53349;53.538;8.584;2023-08-06T14:28:47;22.81;64.47
66522;SHT31;53349;53.538;8.584;2023-08-06T14:31:13;22.86;64.24
66522;SHT31;53349;53.538;8.584;2023-08-06T14:33:38;22.84;64.05
66522;SHT31;53349;53.538;8.584;2023-08-06T14:36:04;22.76;63.90
66522;SHT31;53349;53.538;8.584;2023-08-06T14:38:29;22.69;64.00
66522;SHT31;53349;53.538;8.584;2023-08-06T14:40:56;22.59;63.67
66522;SHT31;53349;53.538;8.584;2023-08-06T14:43:21;22.49;63.71
66522;SHT31;53349;53.538;8.584;2023-08-06T14:45:46;22.45;63.76
66522;SHT31;53349;53.538;8.584;2023-08-06T14:48:12;22.30;63.74
66522;SHT31;53349;53.538;8.584;2023-08-06T14:50:37;22.05;63.20
66522;SHT31;53349;53.538;8.584;2023-08-06T14:53:03;21.97;63.90
66522;SHT31;53349;53.538;8.584;2023-08-06T14:55:28;21.95;63.87
66522;SHT31;53349;53.538;8.584;2023-08-06T14:57:54;21.79;63.74
66522;SHT31;53349;53.538;8.584;2023-08-06T15:00:20;21.65;64.07
66522;SHT31;53349;53.538;8.584;2023-08-06T15:02:45;21.59;64.63
66522;SHT31;53349;53.538;8.584;2023-08-06T15:05:11;21.57;64.45
66522;SHT31;53349;53.538;8.584;2023-08-06T15:07:36;21.48;64.55
66522;SHT31;53349;53.538;8.584;2023-08-06T15:10:02;21.47;64.29
66522;SHT31;53349;53.538;8.584;2023-08-06T15:12:27;21.34;64.50
66522;SHT31;53349;53.538;8.584;2023-08-06T15:14:53;21.46;64.57
66522;SHT31;53349;53.538;8.584;2023-08-06T15:17:18;21.38;64.26
66522;SHT31;53349;53.538;8.584;2023-08-06T15:19:44;21.27;63.77
66522;SHT31;53349;53.538;8.584;2023-08-06T15:22:11;21.28;64.01
66522;SHT31;53349;53.538;8.584;2023-08-06T15:24:36;21.27;64.01
66522;SHT31;53349;53.538;8.584;2023-08-06T15:27:03;21.28;64.15
66522;SHT31;53349;53.538;8.584;2023-08-06T15:29:29;21.27;64.49
66522;SHT31;53349;53.538;8.584;2023-08-06T15:31:54;21.19;64.33
66522;SHT31;53349;53.538;8.584;2023-08-06T15:34:20;21.24;64.62
66522;SHT31;53349;53.538;8.584;2023-08-06T15:36:45;21.30;64.76